Time;durP1;ratioP1;P1;durP2;ratioP2;P2;SDS_P1;SDS_P2;PMS_P1;PMS_P2;Temp;Humidity;BMP_temperature;BMP_pressure;BME280_temperature;BME280_humidity;BME280_pressure;Samples;Min_cycle;Max_cycle;Signal;HPM_P1;HPM_P2
2022/08/13 00:01:46;;;;;;;6.70;3.75;;;24.50;58.30;;;;;;5092416;28;20040;-60
2022/08/13 00:04:13;;;;;;;5.50;3.22;;;24.50;58.20;;;;;;5091837;28;20048;-60
2022/08/13 00:09:09;;;;;;;6.22;3.63;;;24.40;58.20;;;;;;5092208;28;20044;-60
2022/08/13 00:14:22;;;;;;;6.35;3.80;;;24.40;58.20;;;;;;5092078;28;20044;-61
2022/08/13 00:16:48;;;;;;;6.68;3.38;;;24.40;58.20;;;;;;5092421;28;20050;-60
2022/08/13 00:19:13;;;;;;;6.45;3.63;;;24.40;58.20;;;;;;5091004;28;20036;-60
2022/08/13 00:21:39;;;;;;;7.00;4.13;;;24.40;58.10;;;;;;5092190;28;20055;-61
2022/08/13 00:24:05;;;;;;;4.63;3.40;;;24.40;58.10;;;;;;5092458;28;20055;-60
2022/08/13 00:26:31;;;;;;;5.55;3.20;;;24.40;58.10;;;;;;5091287;28;20044;-60
2022/08/13 00:28:57;;;;;;;6.05;3.70;;;24.40;58.10;;;;;;5092013;28;20547;-61
2022/08/13 00:31:23;;;;;;;6.22;3.67;;;24.40;58.10;;;;;;5094501;28;20143;-60
2022/08/13 00:33:48;;;;;;;5.68;3.50;;;24.40;58.10;;;;;;5095792;28;20075;-61
2022/08/13 00:36:15;;;;;;;5.97;3.72;;;24.40;58.10;;;;;;5096193;28;20059;-61
2022/08/13 00:38:44;;;;;;;5.38;3.25;;;24.40;58.10;;;;;;5095606;28;20048;-61
2022/08/13 00:41:13;;;;;;;4.85;3.10;;;24.40;58.00;;;;;;5096439;28;20055;-61
2022/08/13 00:43:39;;;;;;;5.32;3.08;;;24.30;58.00;;;;;;5096246;28;20040;-61
2022/08/13 00:46:05;;;;;;;6.75;3.20;;;24.30;58.00;;;;;;5095252;28;20055;-60
2022/08/13 00:48:42;;;;;;;5.47;3.30;;;24.30;58.00;;;;;;5095810;28;20036;-61
2022/08/13 00:51:09;;;;;;;5.38;3.50;;;24.30;58.00;;;;;;5095954;28;20051;-61
2022/08/13 00:53:37;;;;;;;6.30;3.00;;;24.30;58.00;;;;;;5095155;28;20093;-61
2022/08/13 00:56:02;;;;;;;6.65;3.10;;;24.30;58.00;;;;;;5096238;28;20048;-61
2022/08/13 00:58:28;;;;;;;5.97;3.20;;;24.30;57.90;;;;;;5095390;28;20493;-61
2022/08/13 01:00:56;;;;;;;6.22;3.20;;;24.30;57.90;;;;;;5095120;28;20093;-61
2022/08/13 01:03:22;;;;;;;;;;;24.30;57.90;;;;;;5095767;28;20122;-61
2022/08/13 01:05:48;;;;;;;7.65;3.08;;;24.30;57.90;;;;;;5095944;28;19959;-61
2022/08/13 01:08:18;;;;;;;7.28;3.28;;;24.30;58.00;;;;;;5095067;28;20048;-61
2022/08/13 01:10:45;;;;;;;5.03;3.08;;;24.30;57.90;;;;;;5095772;28;20044;-61
2022/08/13 01:13:11;;;;;;;5.75;3.17;;;24.30;57.90;;;;;;5094127;28;20043;-61
2022/08/13 01:15:41;;;;;;;5.97;2.85;;;24.30;57.90;;;;;;5094345;28;20124;-60
2022/08/13 01:18:07;;;;;;;5.75;3.22;;;24.30;57.90;;;;;;5095651;28;20048;-61
2022/08/13 01:20:34;;;;;;;6.30;3.00;;;24.30;57.90;;;;;;5095416;28;20051;-60
2022/08/13 01:23:01;;;;;;;6.30;3.00;;;24.30;57.80;;;;;;5093404;28;20100;-61
2022/08/13 01:25:27;;;;;;;5.37;3.00;;;24.30;57.80;;;;;;5095108;28;20040;-61
2022/08/13 01:27:53;;;;;;;5.90;3.03;;;24.30;57.70;;;;;;5094428;28;20844;-60
2022/08/13 01:30:20;;;;;;;5.25;3.15;;;24.30;57.70;;;;;;5094953;28;20043;-61
2022/08/13 01:32:45;;;;;;;6.13;3.13;;;24.30;57.70;;;;;;5094841;28;20067;-60
2022/08/13 01:35:11;;;;;;;5.30;2.85;;;24.30;57.60;;;;;;5094300;28;20052;-60
2022/08/13 01:37:37;;;;;;;5.72;2.67;;;24.20;57.50;;;;;;5093402;28;20044;-60
2022/08/13 01:40:04;;;;;;;4.35;2.92;;;24.30;57.50;;;;;;5094940;28;20044;-61
2022/08/13 01:42:41;;;;;;;5.43;3.17;;;24.30;57.50;;;;;;5093789;28;20089;-60
2022/08/13 01:45:07;;;;;;;5.07;2.75;;;24.20;57.40;;;;;;5093851;28;20047;-61
2022/08/13 01:50:29;;;;;;;4.25;2.70;;;24.20;57.30;;;;;;5094020;28;20058;-61
2022/08/13 01:53:01;;;;;;;4.03;2.67;;;24.20;57.20;;;;;;5094797;28;20047;-61
2022/08/13 01:55:44;;;;;;;5.47;2.80;;;24.20;57.10;;;;;;5094564;28;20040;-61
2022/08/13 01:58:34;;;;;;;5.40;2.92;;;24.20;57.00;;;;;;5093978;28;20062;-61
2022/08/13 02:01:01;;;;;;;4.07;2.75;;;24.20;57.00;;;;;;5080155;28;20850;-60
2022/08/13 02:03:27;;;;;;;5.32;2.60;;;24.20;56.90;;;;;;5053291;28;20044;-61
2022/08/13 02:05:56;;;;;;;4.78;2.70;;;24.20;56.80;;;;;;5054116;28;20049;-60
2022/08/13 02:08:23;;;;;;;3.75;2.65;;;24.20;56.80;;;;;;5054016;28;20079;-61
2022/08/13 02:10:50;;;;;;;4.55;2.50;;;24.20;56.70;;;;;;5053445;28;20048;-61
2022/08/13 02:13:21;;;;;;;4.78;2.60;;;24.20;56.70;;;;;;5053736;28;20045;-61
2022/08/13 02:15:48;;;;;;;3.92;2.63;;;24.20;56.60;;;;;;5054306;28;20052;-60
2022/08/13 02:18:17;;;;;;;4.43;2.40;;;24.20;56.60;;;;;;5051595;28;20508;-61
2022/08/13 02:20:46;;;;;;;4.93;2.75;;;24.10;56.40;;;;;;5053916;28;20049;-61
2022/08/13 02:23:16;;;;;;;3.53;2.30;;;24.20;56.50;;;;;;5054156;28;20507;-60
2022/08/13 02:25:43;;;;;;;6.43;2.20;;;24.20;56.40;;;;;;5051894;28;20045;-60
2022/08/13 02:28:10;;;;;;;5.22;2.67;;;24.10;56.40;;;;;;5053730;28;20076;-60
2022/08/13 02:30:36;;;;;;;3.38;2.10;;;24.10;57.10;;;;;;5052125;28;20077;-60
2022/08/13 02:33:03;;;;;;;7.72;2.80;;;24.20;56.40;;;;;;5052713;28;20141;-60
2022/08/13 02:35:29;;;;;;;3.53;2.22;;;24.10;56.20;;;;;;5053742;28;20059;-60
2022/08/13 02:37:55;;;;;;;4.13;2.33;;;24.10;56.20;;;;;;5068781;28;20053;-60
2022/08/13 02:43:06;;;;;;;5.35;2.08;;;24.10;56.10;;;;;;5053649;28;20074;-61
2022/08/13 02:45:32;;;;;;;4.57;2.22;;;24.10;56.10;;;;;;5052634;28;20145;-60
2022/08/13 02:47:57;;;;;;;3.28;2.40;;;24.10;56.10;;;;;;5053764;28;20073;-60
2022/08/13 02:50:24;;;;;;;3.38;2.10;;;24.00;56.00;;;;;;5053119;28;20080;-61
2022/08/13 02:52:51;;;;;;;4.97;2.70;;;24.10;56.00;;;;;;5052190;28;20072;-61
2022/08/13 02:55:20;;;;;;;3.90;2.13;;;24.10;55.90;;;;;;5077258;28;20040;-60
2022/08/13 02:57:46;;;;;;;3.42;2.47;;;24.10;55.80;;;;;;5093284;28;20051;-61
2022/08/13 03:00:13;;;;;;;4.35;2.00;;;24.10;55.80;;;;;;5092735;28;20044;-61
2022/08/13 03:02:44;;;;;;;3.38;1.95;;;24.00;55.80;;;;;;5093440;28;20032;-61
2022/08/13 03:05:13;;;;;;;3.13;2.03;;;24.00;55.80;;;;;;5093632;28;20048;-60
2022/08/13 03:07:43;;;;;;;4.85;2.20;;;24.00;55.70;;;;;;5092757;28;20067;-60
2022/08/13 03:10:11;;;;;;;4.95;2.40;;;24.00;55.70;;;;;;5093004;28;20399;-61
2022/08/13 03:12:39;;;;;;;5.63;2.40;;;24.00;55.70;;;;;;5092897;28;20036;-61
2022/08/13 03:15:05;;;;;;;4.10;2.17;;;24.00;55.60;;;;;;5074577;28;20047;-60
2022/08/13 03:17:30;;;;;;;4.57;2.42;;;24.00;55.60;;;;;;5091775;28;20077;-60
2022/08/13 03:19:56;;;;;;;3.88;2.47;;;24.00;55.50;;;;;;5093367;28;20044;-61
2022/08/13 03:22:22;;;;;;;3.30;2.13;;;24.00;55.50;;;;;;5091990;28;20553;-61
2022/08/13 03:24:47;;;;;;;3.95;2.38;;;24.00;55.40;;;;;;5092885;28;20510;-60
2022/08/13 03:27:13;;;;;;;2.65;2.00;;;24.00;55.40;;;;;;5092888;28;20055;-61
2022/08/13 03:29:39;;;;;;;4.32;2.15;;;24.00;55.40;;;;;;5091964;28;20049;-60
2022/08/13 03:32:05;;;;;;;4.70;2.00;;;24.00;55.40;;;;;;5092614;28;20138;-61
2022/08/13 03:34:31;;;;;;;4.25;2.25;;;24.00;55.20;;;;;;5091810;28;20260;-60
2022/08/13 03:36:57;;;;;;;3.95;2.05;;;24.00;55.20;;;;;;5092557;28;20043;-61
2022/08/13 03:39:22;;;;;;;4.22;2.50;;;24.00;55.20;;;;;;5092514;28;20039;-61
2022/08/13 03:41:48;;;;;;;5.35;2.28;;;24.00;55.20;;;;;;5090834;28;20044;-60
2022/08/13 03:44:13;;;;;;;2.80;2.13;;;24.00;55.10;;;;;;5092617;28;20042;-60
2022/08/13 03:46:39;;;;;;;4.43;2.50;;;24.00;55.10;;;;;;5092778;28;20075;-61
2022/08/13 03:49:05;;;;;;;3.55;2.58;;;24.00;55.80;;;;;;5090462;28;20113;-60
2022/08/13 03:51:31;;;;;;;5.35;2.20;;;24.00;55.00;;;;;;5092495;28;20123;-60
2022/08/13 03:53:57;;;;;;;2.70;1.75;;;23.90;55.00;;;;;;5092686;28;20233;-61
2022/08/13 03:56:25;;;;;;;3.30;2.25;;;24.00;55.00;;;;;;5091784;28;20551;-60
2022/08/13 03:58:51;;;;;;;4.28;2.53;;;23.90;55.00;;;;;;5092354;28;20047;-60
2022/08/13 04:01:17;;;;;;;3.60;2.30;;;23.90;55.00;;;;;;5082026;28;20037;-61
2022/08/13 04:03:43;;;;;;;3.05;2.25;;;23.90;54.90;;;;;;5070680;28;20036;-60
2022/08/13 04:06:15;;;;;;;3.17;2.50;;;23.90;54.90;;;;;;5071507;28;20515;-60
2022/08/13 04:08:41;;;;;;;5.15;2.55;;;23.90;54.90;;;;;;5071709;28;20052;-60
2022/08/13 04:11:10;;;;;;;3.83;2.10;;;23.90;54.90;;;;;;5071296;28;20048;-60
2022/08/13 04:13:38;;;;;;;3.17;1.80;;;23.90;54.80;;;;;;5071999;28;20048;-61
2022/08/13 04:16:06;;;;;;;3.42;2.08;;;23.90;54.80;;;;;;5072397;28;20041;-60
2022/08/13 04:18:35;;;;;;;;;;;23.80;54.80;;;;;;5071519;28;20454;-61
2022/08/13 04:21:02;;;;;;;3.42;2.13;;;23.80;54.90;;;;;;5072114;28;19931;-61
2022/08/13 04:23:28;;;;;;;2.97;2.08;;;23.80;54.90;;;;;;5072077;28;20044;-60
2022/08/13 04:25:54;;;;;;;2.58;2.15;;;23.80;54.80;;;;;;5071623;28;20033;-60
2022/08/13 04:28:21;;;;;;;3.50;2.33;;;23.80;54.90;;;;;;5071551;28;20503;-60
2022/08/13 04:30:46;;;;;;;3.78;2.00;;;23.80;54.80;;;;;;5071178;28;20052;-60
2022/08/13 04:33:14;;;;;;;2.92;2.00;;;23.80;54.80;;;;;;5089253;28;20048;-61
2022/08/13 04:35:39;;;;;;;3.45;2.17;;;23.80;54.80;;;;;;5092325;28;20491;-60
2022/08/13 04:38:06;;;;;;;4.97;2.40;;;23.80;54.80;;;;;;5091621;28;20048;-60
2022/08/13 04:40:35;;;;;;;4.03;2.13;;;23.80;54.80;;;;;;5092107;28;20085;-60
2022/08/13 04:43:01;;;;;;;3.80;2.30;;;23.80;54.80;;;;;;5092164;28;20069;-60
2022/08/13 04:45:27;;;;;;;4.35;2.15;;;23.80;54.80;;;;;;5091247;28;20055;-60
2022/08/13 04:47:54;;;;;;;3.38;2.17;;;23.80;54.80;;;;;;5092284;28;20097;-61
2022/08/13 04:50:19;;;;;;;3.05;1.90;;;23.80;54.80;;;;;;5091726;28;20198;-61
2022/08/13 04:52:45;;;;;;;3.28;2.00;;;23.70;54.80;;;;;;5091376;28;20119;-60
2022/08/13 04:55:12;;;;;;;4.32;2.10;;;23.80;54.90;;;;;;5090613;28;20410;-61
2022/08/13 04:57:38;;;;;;;5.70;2.22;;;23.70;54.80;;;;;;5091762;28;20036;-60
2022/08/13 05:00:07;;;;;;;4.45;2.08;;;23.70;54.90;;;;;;5091339;28;20052;-60
2022/08/13 05:02:40;;;;;;;3.65;2.05;;;23.70;54.90;;;;;;5090475;28;20850;-60
2022/08/13 05:05:06;;;;;;;2.80;1.95;;;23.70;55.60;;;;;;5091985;28;20052;-60
2022/08/13 05:07:32;;;;;;;3.40;1.85;;;23.70;55.00;;;;;;5090781;28;20507;-60
2022/08/13 05:09:58;;;;;;;3.83;2.22;;;23.70;54.90;;;;;;5091802;28;20040;-60
2022/08/13 05:12:23;;;;;;;3.95;2.30;;;23.70;55.00;;;;;;5091670;28;20131;-60
2022/08/13 05:14:49;;;;;;;4.30;2.25;;;23.70;54.90;;;;;;5090913;28;20036;-61
2022/08/13 05:17:15;;;;;;;4.15;2.10;;;23.70;54.90;;;;;;5093473;28;20077;-61
2022/08/13 05:19:41;;;;;;;3.00;1.90;;;23.70;54.90;;;;;;5095754;28;20040;-60
2022/08/13 05:22:07;;;;;;;4.43;2.30;;;23.70;54.90;;;;;;5094452;28;20044;-60
2022/08/13 05:24:33;;;;;;;3.38;2.65;;;23.70;54.90;;;;;;5095201;28;20043;-60
2022/08/13 05:26:58;;;;;;;5.18;2.53;;;23.70;55.00;;;;;;5094324;28;20056;-61
2022/08/13 05:29:24;;;;;;;2.88;1.92;;;23.70;55.00;;;;;;5095119;28;20172;-61
2022/08/13 05:31:54;;;;;;;3.65;1.92;;;23.70;55.00;;;;;;5094909;28;20096;-61
2022/08/13 05:34:19;;;;;;;4.00;2.00;;;23.70;55.00;;;;;;5094485;28;20059;-61
2022/08/13 05:36:46;;;;;;;3.55;2.00;;;23.80;55.10;;;;;;5095194;28;20051;-61
2022/08/13 05:39:13;;;;;;;3.10;1.90;;;23.70;55.00;;;;;;5095210;28;20484;-61
2022/08/13 05:41:39;;;;;;;3.25;2.00;;;23.70;55.00;;;;;;5094344;28;20043;-61
2022/08/13 05:44:05;;;;;;;3.53;2.03;;;23.80;55.00;;;;;;5094820;28;20048;-61
2022/08/13 05:46:30;;;;;;;3.25;2.00;;;23.70;55.00;;;;;;5094386;28;20038;-61
2022/08/13 05:48:56;;;;;;;3.50;1.80;;;23.70;55.00;;;;;;5094212;28;20191;-61
2022/08/13 05:51:31;;;;;;;5.55;2.40;;;23.70;55.00;;;;;;5094430;28;20422;-60
2022/08/13 05:53:59;;;;;;;7.40;3.00;;;23.70;53.90;;;;;;5094988;28;20036;-61
2022/08/13 05:56:25;;;;;;;4.72;2.28;;;23.60;53.10;;;;;;5093971;28;20044;-61
2022/08/13 05:58:51;;;;;;;4.82;2.30;;;23.50;52.80;;;;;;5094268;28;20503;-60
2022/08/13 06:04:10;;;;;;;5.70;2.60;;;23.30;52.30;;;;;;5094093;28;20040;-61
2022/08/13 06:06:36;;;;;;;4.47;2.40;;;23.20;52.00;;;;;;5094630;28;20040;-60
2022/08/13 06:09:05;;;;;;;4.25;2.50;;;23.10;52.20;;;;;;5094291;28;20040;-61
2022/08/13 06:11:30;;;;;;;7.53;2.60;;;23.00;52.20;;;;;;5093696;28;20075;-61
2022/08/13 06:13:56;;;;;;;3.83;2.22;;;23.00;52.50;;;;;;5094345;28;20086;-61
2022/08/13 06:16:22;;;;;;;3.10;2.08;;;23.00;52.60;;;;;;5093257;28;20048;-60
2022/08/13 06:18:54;;;;;;;4.85;1.90;;;23.00;52.70;;;;;;5059846;28;20051;-61
2022/08/13 06:21:20;;;;;;;6.75;1.90;;;22.90;52.80;;;;;;5094307;28;20101;-65
2022/08/13 06:23:45;;;;;;;7.28;2.38;;;22.90;52.90;;;;;;5076080;28;20040;-60
2022/08/13 06:26:14;;;;;;;2.90;2.10;;;22.90;52.90;;;;;;5073539;28;20048;-60
2022/08/13 06:28:40;;;;;;;3.22;1.90;;;22.90;52.90;;;;;;5072897;28;20040;-59
2022/08/13 06:31:07;;;;;;;4.97;2.10;;;22.90;52.90;;;;;;5072706;28;20404;-59
2022/08/13 06:33:35;;;;;;;5.22;1.90;;;22.90;53.00;;;;;;5073973;28;20452;-61
2022/08/13 06:36:08;;;;;;;5.88;2.25;;;22.80;53.80;;;;;;5074215;28;20040;-61
2022/08/13 06:38:34;;;;;;;5.63;1.83;;;22.80;53.30;;;;;;5072890;28;20097;-61
2022/08/13 06:41:01;;;;;;;5.07;2.05;;;22.80;53.40;;;;;;5073779;28;20056;-60
2022/08/13 06:43:28;;;;;;;5.97;2.30;;;22.80;53.60;;;;;;5073070;28;20049;-60
2022/08/13 06:45:55;;;;;;;4.90;2.05;;;22.90;53.70;;;;;;5073079;28;20048;-60
2022/08/13 06:48:21;;;;;;;6.18;2.20;;;22.90;53.70;;;;;;5073472;28;20049;-60
2022/08/13 06:50:47;;;;;;;6.80;2.20;;;22.90;53.80;;;;;;5073233;28;20128;-60
2022/08/13 06:53:12;;;;;;;4.90;2.17;;;22.90;53.90;;;;;;5055004;28;20043;-60
2022/08/13 06:55:38;;;;;;;4.65;1.90;;;22.90;53.80;;;;;;5073344;28;20037;-60
2022/08/13 06:58:05;;;;;;;4.55;2.03;;;22.90;53.80;;;;;;5055435;28;20037;-60
2022/08/13 07:00:30;;;;;;;6.28;1.80;;;22.90;53.80;;;;;;5037728;28;20048;-60
2022/08/13 07:02:56;;;;;;;4.85;1.90;;;22.90;53.80;;;;;;5073444;28;20040;-60
2022/08/13 07:05:51;;;;;;;8.38;2.15;;;23.00;53.80;;;;;;5054676;28;20435;-62
2022/08/13 07:08:17;;;;;;;4.65;2.10;;;23.00;53.90;;;;;;5063910;28;20063;-62
2022/08/13 07:10:51;;;;;;;4.32;1.67;;;23.00;53.90;;;;;;5071999;28;20044;-61
2022/08/13 07:13:17;;;;;;;7.18;2.10;;;23.00;53.90;;;;;;5070341;28;20405;-60
2022/08/13 07:15:45;;;;;;;4.60;1.58;;;23.00;53.90;;;;;;5073137;28;20060;-60
2022/08/13 07:18:11;;;;;;;3.88;1.90;;;23.10;54.10;;;;;;5071945;28;20033;-60
2022/08/13 07:20:37;;;;;;;7.00;1.83;;;23.10;54.10;;;;;;5071908;28;20502;-60
2022/08/13 07:23:03;;;;;;;9.25;2.10;;;23.10;54.10;;;;;;5072675;28;20365;-60
2022/08/13 07:25:31;;;;;;;6.03;1.80;;;23.20;54.30;;;;;;5072701;28;20549;-60
2022/08/13 07:27:58;;;;;;;4.90;2.10;;;23.20;54.40;;;;;;5071777;28;20045;-60
2022/08/13 07:30:24;;;;;;;4.80;1.63;;;23.20;54.50;;;;;;5072740;28;20071;-60
2022/08/13 07:32:51;;;;;;;4.53;1.95;;;23.20;54.50;;;;;;5071977;28;20057;-60
2022/08/13 07:35:17;;;;;;;3.97;1.52;;;23.20;54.40;;;;;;5071921;28;20044;-60
2022/08/13 07:37:42;;;;;;;4.40;1.80;;;23.30;54.50;;;;;;5072801;28;20072;-60
2022/08/13 07:40:08;;;;;;;3.20;1.60;;;23.30;54.60;;;;;;5071162;28;20068;-60
2022/08/13 07:42:38;;;;;;;3.15;1.63;;;23.30;54.70;;;;;;5071823;28;20049;-60
2022/08/13 07:45:05;;;;;;;4.72;1.63;;;23.40;54.60;;;;;;5069458;28;20040;-60
2022/08/13 07:47:31;;;;;;;3.33;1.50;;;23.40;54.60;;;;;;5071694;28;20536;-60
2022/08/13 07:49:58;;;;;;;3.97;1.80;;;23.40;54.70;;;;;;5070761;28;20044;-60
2022/08/13 07:52:25;;;;;;;3.65;1.83;;;23.40;54.70;;;;;;5071017;28;20052;-61
2022/08/13 07:54:51;;;;;;;2.72;1.40;;;23.50;54.80;;;;;;5071408;28;20120;-60
2022/08/13 07:57:18;;;;;;;4.43;1.48;;;23.50;54.60;;;;;;5072134;28;20197;-60
2022/08/13 07:59:43;;;;;;;3.30;1.48;;;23.60;54.60;;;;;;5078202;28;20036;-60
2022/08/13 08:02:09;;;;;;;3.75;1.75;;;23.60;54.20;;;;;;5091833;28;20054;-60
2022/08/13 08:04:37;;;;;;;5.20;1.45;;;23.60;54.10;;;;;;5092274;28;20044;-60
2022/08/13 08:07:02;;;;;;;3.92;1.77;;;23.60;54.20;;;;;;5092246;28;20476;-60
2022/08/13 08:09:31;;;;;;;4.82;1.42;;;23.60;54.30;;;;;;5090161;28;20123;-60
2022/08/13 08:14:45;;;;;;;3.60;1.50;;;23.70;54.60;;;;;;5092343;28;20129;-60
2022/08/13 08:17:11;;;;;;;4.45;1.60;;;23.70;54.60;;;;;;5091576;28;20440;-60
2022/08/13 08:19:42;;;;;;;4.00;1.60;;;23.80;54.50;;;;;;5092116;28;20059;-61
2022/08/13 08:22:11;;;;;;;4.65;1.73;;;23.80;54.40;;;;;;5092457;28;20032;-61
2022/08/13 08:24:37;;;;;;;4.40;1.52;;;23.80;54.00;;;;;;5091149;28;20507;-61
2022/08/13 08:27:06;;;;;;;3.38;1.83;;;23.90;53.80;;;;;;5091004;28;20127;-61
2022/08/13 08:29:32;;;;;;;5.65;1.88;;;23.90;53.50;;;;;;5091936;28;20415;-62
2022/08/13 08:31:59;;;;;;;3.15;1.80;;;24.00;52.90;;;;;;5090875;28;20048;-61
2022/08/13 08:34:25;;;;;;;2.25;1.40;;;24.00;52.70;;;;;;5091711;28;20080;-61
2022/08/13 08:36:53;;;;;;;3.58;1.48;;;24.00;52.50;;;;;;5090961;28;20106;-61
2022/08/13 08:44:47;;;;;;;3.00;1.63;;;24.10;51.60;;;;;;5090317;28;20086;-61
2022/08/13 08:47:13;;;;;;;3.25;1.80;;;24.20;51.70;;;;;;5074139;28;20072;-60
2022/08/13 08:49:39;;;;;;;3.25;1.52;;;24.20;51.30;;;;;;5091772;28;20107;-60
2022/08/13 08:52:05;;;;;;;2.33;1.60;;;24.30;51.20;;;;;;5093255;28;20044;-59
2022/08/13 08:54:30;;;;;;;2.38;1.50;;;24.30;51.00;;;;;;5095800;28;20051;-60
2022/08/13 08:56:56;;;;;;;3.33;1.60;;;24.40;51.00;;;;;;5094799;28;20047;-61
2022/08/13 08:59:23;;;;;;;4.85;1.60;;;24.40;50.90;;;;;;5094613;28;20480;-61
2022/08/13 09:01:52;;;;;;;4.55;1.50;;;24.40;50.80;;;;;;5089156;28;20441;-63
2022/08/13 09:04:18;;;;;;;4.63;1.98;;;24.50;50.80;;;;;;5074706;28;20044;-61
2022/08/13 09:06:44;;;;;;;4.60;1.70;;;24.50;50.60;;;;;;5073623;28;20464;-60
2022/08/13 09:09:11;;;;;;;4.20;1.67;;;24.60;50.20;;;;;;5075522;28;20080;-61
2022/08/13 09:11:36;;;;;;;3.88;1.77;;;24.60;50.10;;;;;;5074958;28;20430;-61
2022/08/13 09:14:08;;;;;;;3.38;1.90;;;24.70;50.30;;;;;;5073408;28;20042;-61
2022/08/13 09:16:34;;;;;;;3.63;1.60;;;24.60;50.50;;;;;;5084386;28;20621;-61
2022/08/13 09:18:59;;;;;;;3.72;1.55;;;24.60;50.80;;;;;;5094385;28;20048;-61
2022/08/13 09:21:25;;;;;;;4.55;1.63;;;24.60;51.00;;;;;;5093779;28;20051;-61
2022/08/13 09:23:52;;;;;;;2.85;1.50;;;24.60;51.30;;;;;;5095511;28;20050;-61
2022/08/13 09:26:18;;;;;;;4.00;1.83;;;24.60;51.40;;;;;;5092820;28;20211;-61
2022/08/13 09:28:44;;;;;;;4.07;1.38;;;24.50;51.50;;;;;;5095407;28;20467;-60
2022/08/13 09:31:13;;;;;;;6.88;1.63;;;24.50;51.60;;;;;;5076829;28;20440;-61
2022/08/13 09:33:39;;;;;;;3.03;1.45;;;24.50;51.80;;;;;;5094520;28;20093;-61
2022/08/13 09:36:09;;;;;;;3.75;1.63;;;24.50;51.90;;;;;;5095146;28;20052;-62
2022/08/13 09:38:35;;;;;;;2.42;1.40;;;24.50;52.00;;;;;;5077255;28;20047;-62
2022/08/13 09:41:32;;;;;;;3.47;1.40;;;24.50;52.20;;;;;;5092985;28;20059;-61
2022/08/13 09:43:57;;;;;;;4.78;1.50;;;24.50;52.40;;;;;;5083373;28;20400;-62
2022/08/13 09:46:23;;;;;;;3.95;1.67;;;24.50;52.50;;;;;;5072515;28;20518;-62
2022/08/13 09:48:50;;;;;;;4.43;1.65;;;24.50;52.60;;;;;;5073970;28;20044;-62
2022/08/13 09:51:16;;;;;;;2.40;1.45;;;24.50;52.70;;;;;;5074521;28;20082;-62
2022/08/13 09:53:46;;;;;;;2.25;1.55;;;24.50;52.90;;;;;;5074544;28;20427;-62
2022/08/13 09:56:17;;;;;;;3.08;1.40;;;24.50;53.00;;;;;;5070881;28;20076;-61
2022/08/13 09:58:50;;;;;;;2.70;1.20;;;24.50;53.00;;;;;;5060715;28;20041;-62
2022/08/13 10:01:19;;;;;;;2.90;1.67;;;24.50;53.20;;;;;;5066564;28;20048;-62
2022/08/13 10:03:47;;;;;;;3.65;1.50;;;24.50;53.20;;;;;;5053805;28;20049;-61
2022/08/13 10:06:13;;;;;;;1.90;1.42;;;24.50;53.40;;;;;;5053300;28;20064;-60
2022/08/13 10:08:38;;;;;;;3.55;1.27;;;24.50;53.40;;;;;;5070808;28;20048;-61
2022/08/13 10:11:04;;;;;;;2.10;1.40;;;24.50;53.50;;;;;;5073721;28;20048;-61
2022/08/13 10:13:30;;;;;;;2.75;1.27;;;24.50;53.70;;;;;;5073528;28;20043;-61
2022/08/13 10:15:55;;;;;;;2.95;1.40;;;24.60;54.00;;;;;;5071974;28;20055;-61
2022/08/13 10:18:21;;;;;;;5.88;1.50;;;24.60;54.10;;;;;;5074034;28;20045;-61
2022/08/13 10:20:48;;;;;;;5.25;1.40;;;24.60;54.30;;;;;;5073970;28;20055;-61
2022/08/13 10:23:15;;;;;;;2.38;1.50;;;24.60;54.30;;;;;;5084827;28;20456;-61
2022/08/13 10:25:42;;;;;;;4.20;1.60;;;24.60;54.30;;;;;;5094247;28;20036;-62
2022/08/13 10:28:35;;;;;;;1.83;1.48;;;24.60;54.40;;;;;;5094373;28;20141;-61
2022/08/13 10:31:05;;;;;;;2.67;1.55;;;24.60;54.60;;;;;;5091014;28;20078;-61
2022/08/13 10:33:32;;;;;;;3.85;1.33;;;24.60;54.60;;;;;;5093769;28;20055;-61
2022/08/13 10:35:58;;;;;;;3.60;1.52;;;24.60;54.70;;;;;;5093873;28;20492;-61
2022/08/13 10:38:26;;;;;;;2.58;1.20;;;24.60;54.80;;;;;;5089191;28;20032;-60
2022/08/13 10:41:00;;;;;;;3.30;1.52;;;24.60;54.90;;;;;;5052011;28;20083;-61
2022/08/13 10:43:26;;;;;;;2.60;1.50;;;24.60;55.00;;;;;;5066177;28;20131;-61
2022/08/13 10:45:56;;;;;;;3.05;1.70;;;24.70;55.00;;;;;;5053223;28;20047;-61
2022/08/13 10:48:25;;;;;;;2.70;1.63;;;24.60;55.10;;;;;;5053131;28;20043;-61
2022/08/13 10:50:52;;;;;;;3.05;1.52;;;24.70;55.10;;;;;;5051837;28;20140;-61
2022/08/13 10:56:03;;;;;;;3.70;1.50;;;24.70;55.30;;;;;;5053612;28;20049;-61
2022/08/13 10:58:29;;;;;;;3.20;1.40;;;24.70;55.30;;;;;;5052282;28;20111;-61
2022/08/13 11:00:55;;;;;;;3.35;1.40;;;24.70;55.30;;;;;;5053285;28;20564;-61
2022/08/13 11:03:21;;;;;;;2.65;1.33;;;24.70;55.30;;;;;;5053049;28;20108;-61
2022/08/13 11:05:47;;;;;;;2.63;1.70;;;24.70;55.30;;;;;;5052811;28;20443;-60
2022/08/13 11:08:14;;;;;;;4.35;1.70;;;24.70;55.40;;;;;;5057241;28;20123;-61
2022/08/13 11:10:39;;;;;;;2.30;1.55;;;24.70;55.40;;;;;;5072448;28;20037;-61
2022/08/13 11:13:05;;;;;;;3.67;1.70;;;24.70;55.30;;;;;;5071931;28;20086;-60
2022/08/13 11:15:31;;;;;;;3.60;1.48;;;24.70;55.40;;;;;;5071478;28;20403;-60
2022/08/13 11:17:57;;;;;;;2.38;1.45;;;24.70;55.40;;;;;;5072217;28;20051;-60
2022/08/13 11:20:24;;;;;;;2.42;1.60;;;24.70;55.40;;;;;;5071331;28;20112;-61
2022/08/13 11:22:54;;;;;;;3.15;1.50;;;24.70;55.50;;;;;;5073001;28;20045;-60
2022/08/13 11:25:20;;;;;;;3.92;1.30;;;24.70;55.50;;;;;;5072392;28;20123;-61
2022/08/13 11:27:46;;;;;;;1.85;1.38;;;24.70;55.50;;;;;;5072103;28;20139;-61
2022/08/13 11:30:13;;;;;;;2.85;1.23;;;24.80;55.50;;;;;;5072463;28;20072;-61
2022/08/13 11:32:38;;;;;;;3.72;1.50;;;24.80;55.60;;;;;;5071758;28;20064;-61
2022/08/13 11:35:05;;;;;;;2.45;1.42;;;24.70;55.60;;;;;;5072696;28;20048;-61
2022/08/13 11:37:31;;;;;;;2.58;1.60;;;24.80;55.70;;;;;;5072653;28;20048;-61
2022/08/13 11:39:56;;;;;;;1.83;1.50;;;24.80;55.80;;;;;;5072077;28;20748;-61
2022/08/13 11:42:22;;;;;;;2.30;1.40;;;24.80;55.80;;;;;;5072240;28;20044;-62
2022/08/13 11:44:47;;;;;;;2.20;1.42;;;24.80;55.90;;;;;;5072539;28;20083;-62
2022/08/13 11:47:13;;;;;;;3.80;1.67;;;24.80;55.90;;;;;;5071503;28;20082;-62
2022/08/13 11:49:38;;;;;;;1.45;1.20;;;24.80;56.10;;;;;;5061906;28;20041;-62
2022/08/13 11:52:04;;;;;;;2.45;1.30;;;24.80;56.00;;;;;;5065704;28;20040;-62
2022/08/13 11:54:29;;;;;;;4.75;1.50;;;24.80;56.10;;;;;;5051539;28;20110;-62
2022/08/13 11:56:55;;;;;;;1.80;1.38;;;24.80;56.10;;;;;;5052430;28;20037;-62
2022/08/13 11:59:20;;;;;;;2.97;1.50;;;24.90;56.20;;;;;;5051344;28;20051;-62
2022/08/13 12:01:46;;;;;;;3.35;1.35;;;24.90;56.30;;;;;;5051270;28;20041;-62
2022/08/13 12:04:12;;;;;;;2.35;1.50;;;24.80;56.20;;;;;;5052170;28;20049;-63
2022/08/13 12:06:39;;;;;;;2.38;1.40;;;24.90;56.30;;;;;;5051971;28;20476;-62
2022/08/13 12:09:04;;;;;;;1.50;1.23;;;24.90;56.20;;;;;;5051762;28;20116;-62
2022/08/13 12:11:30;;;;;;;2.25;1.30;;;24.90;56.30;;;;;;5050230;28;20465;-62
2022/08/13 12:13:56;;;;;;;2.55;1.30;;;24.90;56.30;;;;;;5050746;28;20051;-62
2022/08/13 12:16:22;;;;;;;2.20;1.40;;;24.90;56.30;;;;;;5051154;28;20040;-62
2022/08/13 12:18:48;;;;;;;1.80;1.30;;;24.90;56.30;;;;;;5051140;28;20075;-62
2022/08/13 12:21:14;;;;;;;2.42;1.60;;;24.90;56.40;;;;;;5051550;28;20045;-62
2022/08/13 12:23:39;;;;;;;1.90;1.30;;;24.90;56.50;;;;;;5051619;28;20056;-62
2022/08/13 12:26:05;;;;;;;1.92;1.30;;;24.90;56.40;;;;;;5052734;28;20094;-62
2022/08/13 12:28:30;;;;;;;2.10;1.23;;;24.90;56.40;;;;;;5055937;28;20033;-62
2022/08/13 12:30:59;;;;;;;1.42;1.10;;;25.00;56.40;;;;;;5054283;28;20057;-61
2022/08/13 12:33:26;;;;;;;3.33;1.40;;;25.00;56.60;;;;;;5056397;28;20539;-61
2022/08/13 12:35:51;;;;;;;2.92;1.20;;;24.90;56.60;;;;;;5067848;28;20040;-61
2022/08/13 12:38:17;;;;;;;2.72;1.45;;;25.00;56.70;;;;;;5073899;28;20511;-61
2022/08/13 12:40:44;;;;;;;2.78;1.50;;;25.00;56.60;;;;;;5076247;28;20403;-62
2022/08/13 12:43:09;;;;;;;2.10;1.30;;;25.00;56.60;;;;;;5075501;28;20545;-61
2022/08/13 12:45:35;;;;;;;2.65;1.15;;;25.00;56.60;;;;;;5076276;28;20048;-60
2022/08/13 12:48:03;;;;;;;5.15;1.52;;;25.00;56.60;;;;;;5076348;28;20052;-61
2022/08/13 12:50:28;;;;;;;1.87;1.43;;;25.00;56.70;;;;;;5075329;28;20127;-61
2022/08/13 12:52:54;;;;;;;2.85;1.20;;;25.00;56.60;;;;;;5076097;28;20382;-61
2022/08/13 12:55:19;;;;;;;3.55;1.42;;;25.00;56.70;;;;;;5076068;28;20036;-61
2022/08/13 12:57:45;;;;;;;2.05;1.30;;;25.10;56.80;;;;;;5073425;28;20430;-61
2022/08/13 13:00:11;;;;;;;2.70;1.50;;;25.10;56.70;;;;;;5075852;28;20078;-61
2022/08/13 13:02:39;;;;;;;3.17;1.30;;;25.10;56.80;;;;;;5075274;28;20500;-61
2022/08/13 13:05:05;;;;;;;2.13;1.45;;;25.10;57.50;;;;;;5073965;28;20041;-61
2022/08/13 13:07:30;;;;;;;1.95;1.50;;;25.10;56.80;;;;;;5074354;28;20059;-61
2022/08/13 13:09:59;;;;;;;1.45;1.00;;;25.10;56.90;;;;;;5075832;28;20044;-61
2022/08/13 13:12:25;;;;;;;2.15;1.50;;;25.20;57.00;;;;;;5074722;28;20119;-61